F/V Eema 2 — FL9603 — position and weather

sailwx.info

Track history (hours):
 
Tides and Currents Weather Stations Pressure Air Temp Water Temp Dewpoint Dewpoint Depression Visibility Wind Speed Wind Dir Waves Ship Positions

F/V Eema 2

Last reported at 2014-Oct-01 13:33 UTC. Time now 2014-Oct-01 14:25 UTC.
Position N 44°38' W 001°14'.

Length 10 m.

Type: Fishing. MMSI: 22700000.

Date/timePositionNaut miles runAvg speedWind from/ knotsBaromVisibWave heightAir tempDewpointWater temp
2014-Oct-01 13:33N 44°38' W 001°14'5 5.4
2014-Oct-01 12:33N 44°33' W 001°18'10 7.7
2014-Oct-01 11:16N 44°23' W 001°21'10 3.4
2014-Oct-01 08:13N 44°13' W 001°21'2 2.4
2014-Oct-01 07:33N 44°15' W 001°21'2 1.4
2014-Oct-01 06:11N 44°15' W 001°18'1 1.5
2014-Oct-01 05:33N 44°16' W 001°18'2 1.0
2014-Oct-01 03:31N 44°17' W 001°20'3 0.2
2014-Sep-30 13:32N 44°21' W 001°18'0 0.5
2014-Sep-30 12:31N 44°21' W 001°19'3 3.1
2014-Sep-30 11:33N 44°24' W 001°19'1 0.3
2014-Sep-30 07:25N 44°23' W 001°20'1 1.2
2014-Sep-30 06:33N 44°22' W 001°20'4 3.1
2014-Sep-30 05:20N 44°18' W 001°18'1 1.9
2014-Sep-30 04:33N 44°17' W 001°18'2 1.9
2014-Sep-30 03:32N 44°15' W 001°18'10 0.7
2014-Sep-29 14:30N 44°24' W 001°19'1 0.8
2014-Sep-29 13:33N 44°24' W 001°20'2 1.5
2014-Sep-29 12:31N 44°24' W 001°22'4 4.6
2014-Sep-29 11:32N 44°28' W 001°25'2 0.2
2014-Sep-29 01:03N 44°30' W 001°26'0 0.1
2014-Sep-29 00:16N 44°30' W 001°26'0 0.1
2014-Sep-28 23:31N 44°30' W 001°26'0 0.0
2014-Sep-28 22:28N 44°30' W 001°26'0 0.0
2014-Sep-28 21:31N 44°30' W 001°26'0 0.1
2014-Sep-28 20:31N 44°30' W 001°26'0 0.1
2014-Sep-28 19:31N 44°30' W 001°26'0 0.0
2014-Sep-28 18:31N 44°30' W 001°26'0 0.0
2014-Sep-28 17:31N 44°30' W 001°26'1 0.3
2014-Sep-28 12:25N 44°31' W 001°25'7 7.6
2014-Sep-28 11:33N 44°38' W 001°23'6 6.3
2014-Sep-28 10:34N 44°44' W 001°22'2 2.2
2014-Sep-28 09:33N 44°46' W 001°22'1 1.0
2014-Sep-28 08:30N 44°47' W 001°22'2 2.1
2014-Sep-28 07:33N 44°45' W 001°22'1 1.2
2014-Sep-28 06:33N 44°44' W 001°21'2 2.3
2014-Sep-28 05:33N 44°46' W 001°21'2 1.7
2014-Sep-28 04:33N 44°48' W 001°22'0 0.0
2014-Sep-28 03:33N 44°48' W 001°22'0 0.0
2014-Sep-28 01:27N 44°48' W 001°22'0 0.0
2014-Sep-28 00:15N 44°48' W 001°22'0 0.0
2014-Sep-27 23:27N 44°48' W 001°22'0 0.0
2014-Sep-27 20:30N 44°48' W 001°22'0 0.0
2014-Sep-27 16:33N 44°48' W 001°22'4 4.0
2014-Sep-27 15:33N 44°44' W 001°22'1 1.1
2014-Sep-27 14:33N 44°45' W 001°22'8 7.5
2014-Sep-27 13:31N 44°37' W 001°22'8 7.7
2014-Sep-27 12:30N 44°29' W 001°22'33 7.9
2014-Sep-27 08:15N 43°56' W 001°29'7 8.2
2014-Sep-27 07:24N 43°49' W 001°31'24 8.2
2014-Sep-27 04:27N 43°26' W 001°40'2 0.1
2014-Sep-25 16:25N 43°28' W 001°39'  
2014-Sep-22 02:15N 44°12' W 001°20'  
Track history (hours):
 
Tides and Currents Weather Stations Pressure Air Temp Water Temp Dewpoint Dewpoint Depression Visibility Wind Speed Wind Dir Waves Ship Positions

F/V Eema 2

Last reported at 2014-Oct-01 13:33 UTC. Time now 2014-Oct-01 14:25 UTC.
Position N 44°38' W 001°14'.

Length 10 m.

Type: Fishing. MMSI: 22700000.

Date/timePositionNaut miles runAvg speedWind from/ knotsBaromVisibWave heightAir tempDewpointWater temp
2014-Oct-01 13:33N 44°38' W 001°14'5 5.4
2014-Oct-01 12:33N 44°33' W 001°18'10 7.7
2014-Oct-01 11:16N 44°23' W 001°21'10 3.4
2014-Oct-01 08:13N 44°13' W 001°21'2 2.4
2014-Oct-01 07:33N 44°15' W 001°21'2 1.4
2014-Oct-01 06:11N 44°15' W 001°18'1 1.5
2014-Oct-01 05:33N 44°16' W 001°18'2 1.0
2014-Oct-01 03:31N 44°17' W 001°20'3 0.2
2014-Sep-30 13:32N 44°21' W 001°18'0 0.5
2014-Sep-30 12:31N 44°21' W 001°19'3 3.1
2014-Sep-30 11:33N 44°24' W 001°19'1 0.3
2014-Sep-30 07:25N 44°23' W 001°20'1 1.2
2014-Sep-30 06:33N 44°22' W 001°20'4 3.1
2014-Sep-30 05:20N 44°18' W 001°18'1 1.9
2014-Sep-30 04:33N 44°17' W 001°18'2 1.9
2014-Sep-30 03:32N 44°15' W 001°18'10 0.7
2014-Sep-29 14:30N 44°24' W 001°19'1 0.8
2014-Sep-29 13:33N 44°24' W 001°20'2 1.5
2014-Sep-29 12:31N 44°24' W 001°22'4 4.6
2014-Sep-29 11:32N 44°28' W 001°25'2 0.2
2014-Sep-29 01:03N 44°30' W 001°26'0 0.1
2014-Sep-29 00:16N 44°30' W 001°26'0 0.1
2014-Sep-28 23:31N 44°30' W 001°26'0 0.0
2014-Sep-28 22:28N 44°30' W 001°26'0 0.0
2014-Sep-28 21:31N 44°30' W 001°26'0 0.1
2014-Sep-28 20:31N 44°30' W 001°26'0 0.1
2014-Sep-28 19:31N 44°30' W 001°26'0 0.0
2014-Sep-28 18:31N 44°30' W 001°26'0 0.0
2014-Sep-28 17:31N 44°30' W 001°26'1 0.3
2014-Sep-28 12:25N 44°31' W 001°25'7 7.6
2014-Sep-28 11:33N 44°38' W 001°23'6 6.3
2014-Sep-28 10:34N 44°44' W 001°22'2 2.2
2014-Sep-28 09:33N 44°46' W 001°22'1 1.0
2014-Sep-28 08:30N 44°47' W 001°22'2 2.1
2014-Sep-28 07:33N 44°45' W 001°22'1 1.2
2014-Sep-28 06:33N 44°44' W 001°21'2 2.3
2014-Sep-28 05:33N 44°46' W 001°21'2 1.7
2014-Sep-28 04:33N 44°48' W 001°22'0 0.0
2014-Sep-28 03:33N 44°48' W 001°22'0 0.0
2014-Sep-28 01:27N 44°48' W 001°22'0 0.0
2014-Sep-28 00:15N 44°48' W 001°22'0 0.0
2014-Sep-27 23:27N 44°48' W 001°22'0 0.0
2014-Sep-27 20:30N 44°48' W 001°22'0 0.0
2014-Sep-27 16:33N 44°48' W 001°22'4 4.0
2014-Sep-27 15:33N 44°44' W 001°22'1 1.1
2014-Sep-27 14:33N 44°45' W 001°22'8 7.5
2014-Sep-27 13:31N 44°37' W 001°22'8 7.7
2014-Sep-27 12:30N 44°29' W 001°22'33 7.9
2014-Sep-27 08:15N 43°56' W 001°29'7 8.2
2014-Sep-27 07:24N 43°49' W 001°31'24 8.2
2014-Sep-27 04:27N 43°26' W 001°40'2 0.1
2014-Sep-25 16:25N 43°28' W 001°39'  
2014-Sep-22 02:15N 44°12' W 001°20'  

Dump ship's entire track history